createdAt,value
2023-03-21T00:01:25.582Z,89.14
2023-03-21T00:05:30.057Z,90.18
2023-03-21T00:09:32.774Z,91.23
2023-03-21T00:13:38.485Z,90.91
2023-03-21T00:17:41.558Z,90.35
2023-03-21T00:21:59.607Z,90.86
2023-03-21T00:26:10.165Z,93.85
2023-03-21T00:30:14.004Z,95.04
2023-03-21T00:34:22.490Z,95.37
2023-03-21T00:38:36.265Z,93.52
2023-03-21T00:42:39.104Z,90.61
2023-03-21T00:46:51.681Z,91.31
2023-03-21T00:51:00.554Z,91.23
2023-03-21T00:55:04.940Z,90.19
2023-03-21T00:59:07.614Z,91.06
2023-03-21T01:03:23.713Z,94.81
2023-03-21T01:07:27.692Z,91.20
2023-03-21T01:11:32.051Z,91.83
2023-03-21T01:15:34.941Z,94.18
2023-03-21T01:19:51.208Z,95.10
2023-03-21T01:23:54.630Z,92.67
2023-03-21T01:27:58.636Z,90.42
2023-03-21T01:32:01.445Z,90.75
2023-03-21T01:36:12.804Z,90.47
2023-03-21T01:40:18.182Z,92.56
2023-03-21T01:44:22.475Z,94.39
2023-03-21T01:48:25.521Z,94.46
2023-03-21T01:52:37.135Z,94.54
2023-03-21T01:56:42.063Z,92.10
2023-03-21T02:00:46.462Z,93.48
2023-03-21T02:04:51.143Z,91.71
2023-03-21T02:08:54.435Z,94.32
2023-03-21T02:12:58.494Z,92.97
2023-03-21T02:17:04.711Z,90.41
2023-03-21T02:21:48.904Z,93.57
2023-03-21T02:26:17.554Z,94.47
2023-03-21T02:30:51.619Z,92.13
2023-03-21T02:35:29.289Z,92.16
2023-03-21T02:39:41.575Z,92.97
2023-03-21T02:43:46.511Z,92.02
2023-03-21T02:47:52.643Z,91.18
2023-03-21T02:52:00.229Z,92.04
2023-03-21T02:56:10.787Z,90.44
2023-03-21T03:00:17.838Z,92.51
2023-03-21T03:04:22.068Z,90.72
2023-03-21T03:08:38.482Z,91.20
2023-03-21T03:12:51.591Z,91.74
2023-03-21T03:17:03.952Z,92.65
2023-03-21T03:21:12.193Z,90.66
2023-03-21T03:25:24.958Z,91.91
2023-03-21T03:29:35.723Z,93.31
2023-03-21T03:33:41.327Z,93.19
2023-03-21T03:37:47.528Z,94.47
2023-03-21T03:42:12.198Z,94.67
2023-03-21T03:46:20.861Z,95.00
2023-03-21T03:50:28.005Z,92.79
2023-03-21T03:54:33.341Z,91.35
2023-03-21T03:58:45.190Z,92.02
2023-03-21T04:02:49.967Z,91.71
2023-03-21T04:06:53.714Z,90.00
2023-03-21T04:10:56.596Z,94.42
2023-03-21T04:15:08.177Z,94.42
2023-03-21T04:19:15.888Z,94.43
2023-03-21T04:23:20.201Z,95.25
2023-03-21T04:27:22.893Z,94.08
2023-03-21T04:31:27.273Z,95.81
2023-03-21T04:35:31.577Z,96.18
2023-03-21T04:39:34.106Z,93.12
2023-03-21T04:43:37.340Z,92.17
2023-03-21T04:47:40.778Z,93.45
2023-03-21T04:51:45.578Z,95.12
2023-03-21T04:55:51.876Z,96.02
2023-03-21T04:59:56.136Z,95.21
2023-03-21T05:03:59.418Z,92.91
2023-03-21T05:08:03.514Z,94.05
2023-03-21T05:12:06.852Z,94.01
2023-03-21T05:16:10.389Z,94.65
2023-03-21T05:20:17.356Z,92.88
2023-03-21T05:24:23.073Z,93.72
2023-03-21T05:28:31.840Z,94.83
2023-03-21T05:32:34.566Z,96.86
2023-03-21T05:36:37.283Z,94.86
2023-03-21T05:40:41.312Z,95.79
2023-03-21T05:44:44.244Z,97.17
2023-03-21T05:48:46.920Z,97.56
2023-03-21T05:52:49.713Z,95.50
2023-03-21T05:56:53.758Z,96.98
2023-03-21T06:00:56.434Z,97.24
2023-03-21T06:04:59.161Z,97.43
2023-03-21T06:09:02.189Z,93.75
2023-03-21T06:13:06.497Z,96.66
2023-03-21T06:17:09.185Z,93.83
2023-03-21T06:21:11.849Z,92.49
2023-03-21T06:25:14.600Z,94.17
2023-03-21T06:29:18.915Z,93.88
2023-03-21T06:33:21.738Z,91.91
2023-03-21T06:37:25.816Z,94.53
2023-03-21T06:41:28.281Z,93.44
2023-03-21T06:45:32.301Z,93.41
2023-03-21T06:49:34.918Z,91.25
2023-03-21T06:53:37.549Z,92.37
2023-03-21T06:57:40.259Z,91.47
2023-03-21T07:01:44.293Z,90.50
2023-03-21T07:05:46.758Z,91.53
2023-03-21T07:09:49.636Z,90.55
2023-03-21T07:13:53.617Z,91.23
2023-03-21T07:17:57.546Z,89.77
2023-03-21T07:22:01.459Z,89.29
2023-03-21T07:26:04.189Z,88.76
2023-03-21T07:30:08.282Z,89.32
2023-03-21T07:34:12.330Z,90.36
2023-03-21T07:38:16.874Z,90.47
2023-03-21T07:42:20.356Z,90.87
2023-03-21T07:46:23.085Z,88.46
2023-03-21T07:50:27.210Z,87.93
2023-03-21T07:54:30.347Z,88.81
2023-03-21T07:58:34.287Z,88.02
2023-03-21T08:02:37.124Z,88.28
2023-03-21T08:06:41.263Z,88.49
2023-03-21T08:10:44.584Z,90.56
2023-03-21T08:14:47.298Z,88.08
2023-03-21T08:18:50.363Z,85.82
2023-03-21T08:22:54.393Z,86.17
2023-03-21T08:26:58.373Z,85.78
2023-03-21T08:31:01.449Z,85.14
2023-03-21T08:35:04.835Z,85.96
2023-03-21T08:39:08.831Z,85.46
2023-03-21T08:43:13.686Z,84.46
2023-03-21T08:47:17.411Z,82.81
2023-03-21T08:51:20.628Z,83.01
2023-03-21T08:55:24.704Z,81.37
2023-03-21T08:59:27.650Z,81.48
2023-03-21T09:03:30.374Z,81.93
2023-03-21T09:07:34.717Z,79.89
2023-03-21T09:11:38.738Z,82.30
2023-03-21T09:15:41.520Z,79.92
2023-03-21T09:19:44.536Z,78.91
2023-03-21T09:23:48.642Z,77.50
2023-03-21T09:27:53.735Z,78.41
2023-03-21T09:31:57.777Z,76.29
2023-03-21T09:36:01.262Z,77.57
2023-03-21T09:40:08.749Z,78.43
2023-03-21T09:44:22.859Z,76.93
2023-03-21T09:48:37.615Z,76.60
2023-03-21T09:52:45.635Z,78.06
2023-03-21T09:56:48.504Z,80.05
2023-03-21T10:00:56.696Z,78.84
2023-03-21T10:05:00.278Z,79.68
2023-03-21T10:09:06.633Z,80.02
2023-03-21T10:13:15.654Z,79.81
2023-03-21T10:17:26.321Z,80.08
2023-03-21T10:22:00.279Z,80.00
2023-03-21T10:25:55.119Z,82.46
2023-03-21T10:30:01.063Z,84.96
2023-03-21T10:34:16.539Z,83.99
2023-03-21T10:38:21.138Z,84.03
2023-03-21T10:42:25.686Z,85.03
2023-03-21T10:46:28.961Z,87.60
2023-03-21T10:50:33.267Z,83.60
2023-03-21T10:54:36.732Z,84.66
2023-03-21T10:58:43.284Z,84.20
2023-03-21T11:02:49.234Z,83.81
2023-03-21T11:06:55.185Z,83.70
2023-03-21T11:11:02.010Z,84.33
2023-03-21T11:15:27.206Z,82.23
2023-03-21T11:19:32.906Z,78.86
2023-03-21T11:23:40.957Z,79.98
2023-03-21T11:27:49.356Z,82.32
2023-03-21T11:31:52.247Z,81.36
2023-03-21T11:36:03.182Z,82.62
2023-03-21T11:40:21.136Z,80.63
2023-03-21T11:44:32.532Z,83.70
2023-03-21T11:48:40.833Z,82.55
2023-03-21T11:52:51.270Z,83.33
2023-03-21T11:56:58.107Z,83.96
2023-03-21T12:01:09.244Z,83.35
2023-03-21T12:05:20.096Z,83.84
2023-03-21T12:09:30.557Z,81.73
2023-03-21T12:13:44.989Z,82.82
2023-03-21T12:17:54.400Z,80.63
2023-03-21T12:22:05.660Z,83.12
2023-03-21T12:26:15.517Z,84.60
2023-03-21T12:30:30.169Z,81.52
2023-03-21T12:34:52.798Z,82.70
2023-03-21T12:39:03.277Z,79.54
2023-03-21T12:43:26.200Z,81.55
2023-03-21T12:47:32.672Z,79.31
2023-03-21T12:51:39.098Z,80.79
2023-03-21T12:55:42.253Z,79.69
2023-03-21T12:59:49.504Z,76.28
2023-03-21T13:04:06.881Z,79.82
2023-03-21T13:08:16.572Z,78.10
2023-03-21T13:12:29.781Z,77.91
2023-03-21T13:16:34.333Z,78.83
2023-03-21T13:20:44.712Z,76.09
2023-03-21T13:24:49.719Z,75.19
2023-03-21T13:28:53.306Z,74.51
2023-03-21T13:33:05.644Z,75.19
2023-03-21T13:37:16.549Z,76.42
2023-03-21T13:41:20.675Z,76.38
2023-03-21T13:45:29.878Z,75.15
2023-03-21T13:49:35.705Z,75.39
2023-03-21T13:53:40.377Z,75.23
2023-03-21T13:57:43.165Z,74.83
2023-03-21T14:02:00.101Z,72.53
2023-03-21T14:06:02.993Z,73.74
2023-03-21T14:10:15.006Z,72.48
2023-03-21T14:14:18.264Z,72.94
2023-03-21T14:18:41.206Z,73.15
2023-03-21T14:22:48.064Z,72.03
2023-03-21T14:26:54.040Z,70.69
2023-03-21T14:30:57.918Z,71.81
2023-03-21T14:35:02.325Z,72.52
2023-03-21T14:39:07.771Z,71.90
2023-03-21T14:43:13.429Z,72.22
2023-03-21T14:47:19.873Z,69.27
2023-03-21T14:51:30.803Z,72.43
2023-03-21T14:55:33.558Z,70.36
2023-03-21T14:59:38.856Z,71.68
2023-03-21T15:03:41.672Z,71.27
2023-03-21T15:07:44.348Z,71.15
2023-03-21T15:11:51.545Z,70.47
2023-03-21T15:15:56.034Z,70.44
2023-03-21T15:19:58.806Z,72.05
2023-03-21T15:24:04.904Z,69.78
2023-03-21T15:28:07.889Z,69.42
2023-03-21T15:32:17.498Z,70.25
2023-03-21T15:36:20.168Z,69.52
2023-03-21T15:40:26.571Z,69.40
2023-03-21T15:44:29.831Z,69.36
2023-03-21T15:48:35.429Z,67.97
2023-03-21T15:52:38.673Z,69.18
2023-03-21T15:56:45.996Z,68.73
2023-03-21T16:00:54.399Z,70.12
2023-03-21T16:05:01.147Z,69.68
2023-03-21T16:09:10.362Z,68.41
2023-03-21T16:13:14.314Z,69.10
2023-03-21T16:17:29.688Z,69.26
2023-03-21T16:21:34.701Z,68.72
2023-03-21T16:25:37.440Z,69.25
2023-03-21T16:29:41.165Z,69.31
2023-03-21T16:33:44.312Z,70.14
2023-03-21T16:37:48.908Z,69.88
2023-03-21T16:41:51.629Z,70.46
2023-03-21T16:45:54.433Z,70.40
2023-03-21T16:49:57.305Z,71.16
2023-03-21T16:54:01.737Z,71.26
2023-03-21T16:58:05.081Z,71.16
2023-03-21T17:02:13.534Z,72.50
2023-03-21T17:06:18.351Z,72.58
2023-03-21T17:10:24.942Z,72.93
2023-03-21T17:14:27.656Z,72.88
2023-03-21T17:18:30.380Z,73.71
2023-03-21T17:22:33.504Z,74.10
2023-03-21T17:26:37.680Z,74.13
2023-03-21T17:30:40.955Z,73.74
2023-03-21T17:34:43.772Z,75.70
2023-03-21T17:38:46.843Z,75.56
2023-03-21T17:42:51.559Z,75.23
2023-03-21T17:46:54.246Z,75.76
2023-03-21T17:50:57.098Z,77.25
2023-03-21T17:55:00.116Z,78.95
2023-03-21T17:59:07.496Z,80.61
2023-03-21T18:03:10.192Z,82.47
2023-03-21T18:07:19.586Z,83.07
2023-03-21T18:11:27.287Z,83.38
2023-03-21T18:15:31.343Z,84.98
2023-03-21T18:19:34.560Z,84.85
2023-03-21T18:23:37.774Z,85.67
2023-03-21T18:28:02.084Z,86.35
2023-03-21T18:32:07.322Z,86.45
2023-03-21T18:36:14.030Z,87.97
2023-03-21T18:40:22.022Z,88.81
2023-03-21T18:44:25.691Z,89.02
2023-03-21T18:48:33.026Z,88.27
2023-03-21T18:52:37.004Z,88.73
2023-03-21T19:01:05.064Z,89.30
2023-03-21T19:05:10.130Z,90.75
2023-03-21T19:09:14.384Z,91.34
2023-03-21T19:13:17.315Z,90.44
2023-03-21T19:18:20.677Z,88.79
2023-03-21T19:21:44.432Z,91.64
2023-03-21T19:25:47.892Z,92.59
2023-03-21T19:30:06.824Z,90.29
2023-03-21T19:34:13.799Z,94.08
2023-03-21T19:38:17.897Z,90.35
2023-03-21T19:42:20.964Z,89.50
2023-03-21T19:46:25.322Z,91.64
2023-03-21T19:51:20.531Z,91.47
2023-03-21T19:54:54.008Z,89.27
2023-03-21T19:58:57.030Z,90.12
2023-03-21T20:02:59.820Z,92.98
2023-03-21T20:07:02.521Z,92.42
2023-03-21T20:11:06.927Z,92.49
2023-03-21T20:15:17.588Z,92.83
2023-03-21T20:19:22.921Z,92.93
2023-03-21T20:23:25.664Z,91.62
2023-03-21T20:27:30.439Z,91.10
2023-03-21T20:31:33.573Z,90.71
2023-03-21T20:36:24.077Z,91.17
2023-03-21T20:39:59.014Z,90.56
2023-03-21T20:48:26.793Z,92.16
2023-03-21T20:56:53.195Z,91.02
2023-03-21T21:00:59.297Z,92.48
2023-03-21T21:05:24.599Z,92.55
2023-03-21T21:09:25.189Z,93.46
2023-03-21T21:13:27.926Z,95.02
2023-03-21T21:18:01.929Z,94.55
2023-03-21T21:21:56.512Z,92.06
2023-03-21T21:26:01.076Z,92.75
2023-03-21T21:30:04.087Z,94.22
2023-03-21T21:34:08.198Z,93.44
2023-03-21T21:38:11.611Z,93.43
2023-03-21T21:42:14.288Z,93.23
2023-03-21T21:46:17.492Z,93.10
2023-03-21T21:50:22.643Z,92.88
2023-03-21T21:54:26.182Z,90.62
2023-03-21T21:58:29.293Z,91.75
2023-03-21T22:02:32.049Z,94.32
2023-03-21T22:06:36.294Z,91.59
2023-03-21T22:10:39.256Z,93.23
2023-03-21T22:14:42.212Z,94.76
2023-03-21T22:18:44.945Z,94.42
2023-03-21T22:22:49.292Z,91.76
2023-03-21T22:26:57.761Z,92.85
2023-03-21T22:31:00.527Z,93.78
2023-03-21T22:35:03.373Z,94.65
2023-03-21T22:39:07.420Z,94.62
2023-03-21T22:43:10.192Z,93.38
2023-03-21T22:47:13.275Z,93.14
2023-03-21T22:51:15.954Z,93.43
2023-03-21T22:55:20.100Z,94.84
2023-03-21T22:59:22.819Z,94.25
2023-03-21T23:03:25.880Z,92.74
2023-03-21T23:07:28.537Z,93.81
2023-03-21T23:11:32.631Z,94.74
2023-03-21T23:15:35.637Z,94.14
2023-03-21T23:19:41.071Z,93.44
2023-03-21T23:23:50.086Z,93.30
2023-03-21T23:27:54.215Z,93.38
2023-03-21T23:31:56.953Z,94.38
2023-03-21T23:35:59.710Z,94.91
2023-03-21T23:40:02.558Z,95.09
2023-03-21T23:44:06.973Z,95.02
2023-03-21T23:48:09.749Z,95.35
2023-03-21T23:52:12.955Z,94.47
2023-03-21T23:56:17.422Z,94.88
